createdAt,value
2022-08-10T00:00:04.768Z,20.10
2022-08-10T00:01:04.714Z,20.05
2022-08-10T00:02:05.278Z,20.00
2022-08-10T00:03:05.147Z,19.98
2022-08-10T00:04:05.091Z,19.97
2022-08-10T00:05:05.048Z,19.93
2022-08-10T00:06:05.240Z,19.95
2022-08-10T00:07:06.110Z,19.94
2022-08-10T00:08:05.717Z,19.93
2022-08-10T00:09:05.573Z,19.91
2022-08-10T00:10:05.441Z,19.88
2022-08-10T00:11:05.306Z,19.87
2022-08-10T00:11:15.347Z,19.88
2022-08-10T00:12:02.997Z,19.86
2022-08-10T00:13:02.804Z,19.84
2022-08-10T00:14:02.703Z,19.83
2022-08-10T00:15:02.666Z,19.80
2022-08-10T00:16:02.440Z,19.76
2022-08-10T00:17:02.996Z,19.79
2022-08-10T00:18:03.589Z,19.76
2022-08-10T00:19:03.058Z,19.75
2022-08-10T00:20:08.762Z,19.70
2022-08-10T00:21:03.638Z,19.70
2022-08-10T00:22:02.315Z,19.65
2022-08-10T00:23:02.209Z,19.66
2022-08-10T00:24:02.844Z,19.65
2022-08-10T00:25:02.500Z,19.65
2022-08-10T00:26:02.409Z,19.60
2022-08-10T00:27:52.401Z,19.60
2022-08-10T00:28:04.249Z,19.58
2022-08-10T00:29:03.195Z,19.55
2022-08-10T00:30:03.457Z,19.53
2022-08-10T00:31:03.418Z,19.54
2022-08-10T00:32:02.403Z,19.50
2022-08-10T00:33:02.318Z,19.53
2022-08-10T00:34:02.845Z,19.48
2022-08-10T00:35:02.533Z,19.48
2022-08-10T00:36:02.429Z,19.43
2022-08-10T00:37:03.133Z,19.43
2022-08-10T00:38:03.039Z,19.42
2022-08-10T00:39:02.973Z,19.43
2022-08-10T00:40:02.872Z,19.39
2022-08-10T00:41:03.434Z,19.38
2022-08-10T00:42:07.623Z,19.33
2022-08-10T00:43:03.246Z,19.32
2022-08-10T00:44:03.584Z,19.31
2022-08-10T00:45:03.332Z,19.32
2022-08-10T00:46:03.234Z,19.25
2022-08-10T00:47:02.888Z,19.31
2022-08-10T00:48:03.035Z,19.25
2022-08-10T00:49:03.318Z,19.20
2022-08-10T00:50:03.147Z,19.17
2022-08-10T00:51:03.027Z,19.13
2022-08-10T00:52:02.990Z,19.17
2022-08-10T00:53:03.015Z,19.17
2022-08-10T00:54:03.025Z,19.13
2022-08-10T00:55:03.025Z,19.11
2022-08-10T00:56:35.828Z,19.05
2022-08-10T00:57:15.988Z,19.01
2022-08-10T00:58:03.778Z,18.97
2022-08-10T00:59:03.396Z,18.92
2022-08-10T01:00:03.307Z,18.94
2022-08-10T01:01:03.329Z,18.95
2022-08-10T01:02:08.883Z,18.97
2022-08-10T01:03:02.907Z,18.94
2022-08-10T01:04:39.692Z,18.87
2022-08-10T01:05:03.148Z,18.83
2022-08-10T01:06:03.172Z,18.83
2022-08-10T01:07:03.090Z,18.79
2022-08-10T01:08:02.999Z,18.77
2022-08-10T01:09:02.892Z,18.74
2022-08-10T01:10:03.340Z,18.74
2022-08-10T01:11:03.219Z,18.73
2022-08-10T01:12:37.407Z,18.70
2022-08-10T01:13:02.677Z,18.65
2022-08-10T01:14:02.551Z,18.65
2022-08-10T01:15:03.118Z,18.65
2022-08-10T01:16:02.679Z,18.64
2022-08-10T01:17:03.282Z,18.62
2022-08-10T01:18:02.965Z,18.57
2022-08-10T01:19:03.539Z,18.54
2022-08-10T01:20:03.412Z,18.54
2022-08-10T01:21:03.316Z,18.52
2022-08-10T01:22:02.631Z,18.47
2022-08-10T01:23:02.546Z,18.47
2022-08-10T01:24:02.713Z,18.46
2022-08-10T01:25:02.741Z,18.43
2022-08-10T01:26:11.779Z,18.43
2022-08-10T01:27:02.986Z,18.37
2022-08-10T01:28:03.175Z,18.43
2022-08-10T01:29:02.940Z,18.39
2022-08-10T01:30:03.482Z,18.39
2022-08-10T01:31:03.117Z,18.37
2022-08-10T01:32:02.728Z,18.28
2022-08-10T01:33:03.171Z,18.22
2022-08-10T01:34:02.945Z,18.27
2022-08-10T01:35:02.663Z,18.28
2022-08-10T01:36:02.545Z,18.27
2022-08-10T01:37:03.116Z,18.24
2022-08-10T01:38:03.216Z,18.25
2022-08-10T01:39:03.610Z,18.24
2022-08-10T01:40:02.854Z,18.25
2022-08-10T01:41:02.925Z,18.27
2022-08-10T01:42:03.634Z,18.19
2022-08-10T01:43:08.486Z,18.24
2022-08-10T01:44:03.901Z,18.21
2022-08-10T01:45:03.576Z,18.18
2022-08-10T01:46:03.456Z,18.13
2022-08-10T01:47:03.212Z,18.13
2022-08-10T01:48:03.027Z,18.10
2022-08-10T01:49:02.969Z,18.09
2022-08-10T01:50:02.919Z,18.07
2022-08-10T01:51:02.887Z,18.07
2022-08-10T01:52:03.555Z,18.06
2022-08-10T01:53:03.337Z,18.04
2022-08-10T01:54:03.185Z,18.00
2022-08-10T01:55:03.103Z,17.99
2022-08-10T01:56:03.073Z,17.97
2022-08-10T01:57:03.776Z,17.94
2022-08-10T01:58:03.411Z,17.92
2022-08-10T01:59:03.218Z,17.89
2022-08-10T02:00:03.561Z,17.88
2022-08-10T02:01:03.818Z,17.87
2022-08-10T02:02:02.085Z,17.84
2022-08-10T02:03:02.007Z,17.81
2022-08-10T02:04:05.740Z,17.78
2022-08-10T02:05:01.743Z,17.78
2022-08-10T02:06:02.312Z,17.73
2022-08-10T02:07:02.610Z,17.73
2022-08-10T02:08:02.539Z,17.71
2022-08-10T02:09:06.606Z,17.71
2022-08-10T02:10:02.344Z,17.73
2022-08-10T02:11:02.215Z,17.69
2022-08-10T02:12:07.519Z,17.66
2022-08-10T02:13:02.663Z,17.66
2022-08-10T02:14:02.612Z,17.64
2022-08-10T02:15:02.568Z,17.62
2022-08-10T02:16:02.626Z,17.57
2022-08-10T02:17:02.218Z,17.59
2022-08-10T02:18:02.333Z,17.62
2022-08-10T02:19:01.792Z,17.59
2022-08-10T02:20:01.688Z,17.57
2022-08-10T02:21:02.260Z,17.53
2022-08-10T02:22:35.797Z,17.50
2022-08-10T02:23:02.248Z,17.48
2022-08-10T02:24:02.257Z,17.44
2022-08-10T02:25:02.156Z,17.43
2022-08-10T02:26:02.143Z,17.38
2022-08-10T02:27:02.060Z,17.36
2022-08-10T02:28:02.384Z,17.36
2022-08-10T02:29:02.294Z,17.35
2022-08-10T02:30:02.141Z,17.35
2022-08-10T02:31:02.655Z,17.33
2022-08-10T02:32:02.283Z,17.32
2022-08-10T02:33:02.513Z,17.32
2022-08-10T02:34:02.861Z,17.28
2022-08-10T02:35:03.019Z,17.28
2022-08-10T02:36:02.801Z,17.25
2022-08-10T02:37:01.777Z,17.25
2022-08-10T02:38:01.711Z,17.23
2022-08-10T02:39:01.705Z,17.23
2022-08-10T02:40:02.322Z,17.26
2022-08-10T02:45:02.061Z,17.25
2022-08-10T02:45:14.467Z,17.18
2022-08-10T02:45:20.365Z,17.13
2022-08-10T02:45:21.099Z,17.17
2022-08-10T02:45:21.567Z,17.11
2022-08-10T02:46:02.500Z,17.11
2022-08-10T02:47:02.402Z,17.07
2022-08-10T02:48:03.108Z,17.07
2022-08-10T02:49:02.742Z,17.03
2022-08-10T02:50:02.695Z,17.04
2022-08-10T02:51:02.473Z,17.08
2022-08-10T02:52:06.465Z,17.04
2022-08-10T02:53:02.395Z,17.04
2022-08-10T02:54:02.237Z,16.99
2022-08-10T02:55:06.136Z,17.00
2022-08-10T02:56:02.239Z,16.96
2022-08-10T02:57:02.230Z,16.95
2022-08-10T02:58:16.593Z,16.93
2022-08-10T02:59:02.069Z,16.93
2022-08-10T03:00:02.858Z,16.92
2022-08-10T03:01:02.684Z,16.92
2022-08-10T03:02:02.342Z,16.89
2022-08-10T03:03:02.221Z,16.89
2022-08-10T03:04:02.789Z,16.88
2022-08-10T03:05:02.689Z,16.89
2022-08-10T03:06:02.658Z,16.86
2022-08-10T03:07:02.615Z,16.86
2022-08-10T03:08:02.518Z,16.86
2022-08-10T03:09:03.113Z,16.85
2022-08-10T03:10:02.758Z,16.80
2022-08-10T03:11:02.572Z,16.75
2022-08-10T03:12:34.793Z,16.77
2022-08-10T03:13:02.129Z,16.78
2022-08-10T03:14:02.691Z,16.74
2022-08-10T03:15:02.306Z,16.78
2022-08-10T03:16:02.183Z,16.78
2022-08-10T03:17:02.815Z,16.74
2022-08-10T03:18:02.720Z,16.74
2022-08-10T03:19:02.772Z,16.74
2022-08-10T03:20:34.753Z,16.73
2022-08-10T03:21:03.261Z,16.74
2022-08-10T03:22:01.952Z,16.70
2022-08-10T03:23:01.826Z,16.70
2022-08-10T03:24:02.257Z,16.67
2022-08-10T03:25:02.243Z,16.65
2022-08-10T03:26:01.928Z,16.63
2022-08-10T03:27:02.296Z,16.65
2022-08-10T03:28:02.619Z,16.62
2022-08-10T03:29:02.548Z,16.62
2022-08-10T03:30:28.563Z,16.62
2022-08-10T03:31:02.414Z,16.59
2022-08-10T03:32:02.047Z,16.55
2022-08-10T03:33:01.939Z,16.52
2022-08-10T03:34:01.845Z,16.53
2022-08-10T03:35:02.461Z,16.50
2022-08-10T03:36:42.054Z,16.44
2022-08-10T03:37:02.402Z,16.41
2022-08-10T03:38:02.379Z,16.41
2022-08-10T03:39:02.386Z,16.40
2022-08-10T03:40:02.397Z,16.37
2022-08-10T03:41:02.312Z,16.35
2022-08-10T03:42:02.983Z,16.30
2022-08-10T03:43:03.085Z,16.25
2022-08-10T03:44:03.452Z,16.25
2022-08-10T03:45:03.201Z,16.23
2022-08-10T03:46:03.131Z,16.23
2022-08-10T03:47:02.179Z,16.25
2022-08-10T03:48:01.921Z,16.23
2022-08-10T03:49:02.127Z,16.23
2022-08-10T03:50:03.568Z,16.20
2022-08-10T03:51:01.902Z,16.23
2022-08-10T03:52:02.647Z,16.25
2022-08-10T03:53:02.634Z,16.23
2022-08-10T03:54:06.993Z,16.20
2022-08-10T03:55:02.581Z,16.22
2022-08-10T03:56:28.673Z,16.22
2022-08-10T03:57:02.583Z,16.18
2022-08-10T03:58:02.516Z,16.20
2022-08-10T03:59:02.455Z,16.18
2022-08-10T04:00:02.439Z,16.22
2022-08-10T04:01:02.780Z,16.18
2022-08-10T04:02:43.270Z,16.15
2022-08-10T04:03:02.466Z,16.18
2022-08-10T04:04:11.748Z,16.16
2022-08-10T04:05:02.484Z,16.16
2022-08-10T04:06:02.482Z,16.16
2022-08-10T04:07:03.263Z,16.15
2022-08-10T04:08:03.147Z,16.15
2022-08-10T04:09:03.225Z,16.18
2022-08-10T04:10:03.070Z,16.15
2022-08-10T04:11:03.145Z,16.15
2022-08-10T04:12:02.845Z,16.12
2022-08-10T04:13:03.039Z,16.15
2022-08-10T04:14:02.873Z,16.11
2022-08-10T04:15:02.847Z,16.12
2022-08-10T04:16:02.800Z,16.11
2022-08-10T04:17:03.551Z,16.12
2022-08-10T04:18:06.378Z,16.09
2022-08-10T04:19:03.362Z,16.06
2022-08-10T04:20:03.331Z,16.04
2022-08-10T04:21:03.312Z,16.00
2022-08-10T04:22:03.094Z,15.99
2022-08-10T04:23:03.134Z,16.00
2022-08-10T04:24:03.178Z,15.99
2022-08-10T04:25:02.665Z,15.99
2022-08-10T04:26:02.672Z,15.93
2022-08-10T04:27:03.398Z,15.94
2022-08-10T04:28:03.563Z,15.92
2022-08-10T04:29:03.318Z,15.94
2022-08-10T04:30:03.375Z,15.89
2022-08-10T04:31:03.386Z,15.89
2022-08-10T04:32:03.433Z,15.85
2022-08-10T04:33:03.654Z,15.84
2022-08-10T04:34:08.434Z,15.79
2022-08-10T04:35:03.459Z,15.84
2022-08-10T04:36:03.625Z,15.82
2022-08-10T04:37:08.153Z,15.84
2022-08-10T04:38:02.829Z,15.86
2022-08-10T04:39:02.897Z,15.88
2022-08-10T04:40:02.901Z,15.86
2022-08-10T04:41:02.712Z,15.85
2022-08-10T04:42:03.327Z,15.85
2022-08-10T04:43:09.000Z,15.82
2022-08-10T04:44:03.253Z,15.81
2022-08-10T04:45:03.317Z,15.85
2022-08-10T04:46:03.323Z,15.85
2022-08-10T04:47:03.058Z,15.84
2022-08-10T04:48:03.608Z,15.82
2022-08-10T04:49:02.702Z,15.84
2022-08-10T04:50:02.710Z,15.79
2022-08-10T04:51:02.760Z,15.76
2022-08-10T04:52:03.550Z,15.79
2022-08-10T04:53:03.699Z,15.76
2022-08-10T04:54:08.229Z,15.81
2022-08-10T04:55:03.365Z,15.84
2022-08-10T04:56:03.311Z,15.85
2022-08-10T04:57:03.074Z,15.82
2022-08-10T04:58:02.972Z,15.81
2022-08-10T04:59:02.962Z,15.84
2022-08-10T05:00:03.041Z,15.85
2022-08-10T05:01:02.752Z,15.86
2022-08-10T05:02:27.908Z,15.84
2022-08-10T05:03:03.421Z,15.84
2022-08-10T05:04:36.849Z,15.85
2022-08-10T05:05:02.968Z,15.86
2022-08-10T05:06:03.035Z,15.88
2022-08-10T05:07:03.141Z,15.89
2022-08-10T05:08:03.327Z,15.84
2022-08-10T05:09:03.272Z,15.85
2022-08-10T05:10:07.399Z,15.86
2022-08-10T05:11:03.596Z,15.89
2022-08-10T05:12:02.636Z,15.88
2022-08-10T05:13:02.728Z,15.85
2022-08-10T05:14:02.810Z,15.92
2022-08-10T05:15:02.876Z,15.93
2022-08-10T05:16:03.178Z,15.94
2022-08-10T05:17:03.189Z,15.97
2022-08-10T05:18:08.616Z,15.97
2022-08-10T05:19:03.265Z,15.99
2022-08-10T05:20:06.811Z,16.00
2022-08-10T05:21:03.476Z,16.03
2022-08-10T05:22:04.836Z,16.01
2022-08-10T05:23:02.694Z,16.07
2022-08-10T05:24:02.901Z,16.09
2022-08-10T05:25:03.052Z,16.11
2022-08-10T05:26:03.010Z,16.09
2022-08-10T05:27:10.000Z,16.11
2022-08-10T05:28:06.497Z,16.12
2022-08-10T05:29:03.085Z,16.12
2022-08-10T05:30:03.796Z,16.14
2022-08-10T05:31:03.436Z,16.14
2022-08-10T05:32:02.521Z,16.22
2022-08-10T05:33:06.498Z,16.31
2022-08-10T05:34:03.026Z,16.37
2022-08-10T05:35:02.596Z,16.45
2022-08-10T05:36:02.896Z,16.53
2022-08-10T05:37:03.035Z,16.59
2022-08-10T05:38:09.384Z,16.63
2022-08-10T05:39:03.389Z,16.71
2022-08-10T05:40:03.507Z,16.78
2022-08-10T05:41:03.207Z,16.86
2022-08-10T05:42:03.212Z,16.88
2022-08-10T05:43:03.229Z,16.95
2022-08-10T05:44:03.260Z,17.00
2022-08-10T05:45:03.386Z,17.08
2022-08-10T05:46:19.568Z,17.11
2022-08-10T05:47:03.329Z,17.22
2022-08-10T05:48:57.923Z,17.25
2022-08-10T05:49:03.529Z,17.32
2022-08-10T05:50:03.345Z,17.33
2022-08-10T05:51:03.379Z,17.41
2022-08-10T05:52:03.508Z,17.47
2022-08-10T05:53:59.887Z,17.54
2022-08-10T05:54:06.631Z,17.63
2022-08-10T05:55:03.883Z,17.73
2022-08-10T05:56:03.926Z,17.79
2022-08-10T05:57:02.844Z,17.88
2022-08-10T05:58:03.173Z,17.94
2022-08-10T05:59:03.255Z,18.04
2022-08-10T06:00:11.369Z,18.07
2022-08-10T06:01:03.231Z,18.13
2022-08-10T06:02:31.873Z,18.18
2022-08-10T06:03:03.064Z,18.27
2022-08-10T06:04:03.080Z,18.36
2022-08-10T06:05:03.205Z,18.44
2022-08-10T06:06:03.318Z,18.50
2022-08-10T06:07:02.530Z,18.61
2022-08-10T06:08:02.852Z,18.68
2022-08-10T06:09:02.617Z,18.77
2022-08-10T06:10:02.685Z,18.83
2022-08-10T06:12:26.936Z,19.01
2022-08-10T06:12:27.317Z,18.94
2022-08-10T06:13:03.302Z,19.13
2022-08-10T06:14:15.781Z,19.21
2022-08-10T06:15:05.621Z,19.28
2022-08-10T06:16:02.877Z,19.36
2022-08-10T06:17:02.904Z,19.42
2022-08-10T06:18:03.098Z,19.48
2022-08-10T06:19:03.043Z,19.54
2022-08-10T06:20:03.108Z,19.63
2022-08-10T06:21:03.131Z,19.73
2022-08-10T06:22:03.342Z,19.80
2022-08-10T06:23:03.392Z,19.88
2022-08-10T06:24:03.591Z,19.94
2022-08-10T06:26:10.019Z,20.12
2022-08-10T06:27:02.761Z,20.23
2022-08-10T06:28:02.776Z,20.30
2022-08-10T06:29:04.156Z,20.39
2022-08-10T06:30:02.685Z,20.47
2022-08-10T06:31:02.869Z,20.58
2022-08-10T06:32:03.006Z,20.69
2022-08-10T06:33:03.139Z,20.79
2022-08-10T06:34:03.196Z,20.90
2022-08-10T06:35:03.301Z,21.01
2022-08-10T06:36:03.183Z,21.13
2022-08-10T06:37:03.319Z,21.23
2022-08-10T06:38:03.376Z,21.30
2022-08-10T06:39:29.970Z,21.41
2022-08-10T06:40:03.540Z,21.53
2022-08-10T06:41:03.406Z,21.60
2022-08-10T06:42:15.892Z,21.69
2022-08-10T06:43:03.494Z,21.81
2022-08-10T06:44:03.892Z,21.90
2022-08-10T06:45:03.743Z,21.98
2022-08-10T06:46:07.288Z,22.10
2022-08-10T06:47:02.868Z,22.22
2022-08-10T06:48:02.941Z,22.32
2022-08-10T06:49:02.974Z,22.43
2022-08-10T06:50:04.884Z,22.52
2022-08-10T06:51:03.304Z,22.62
2022-08-10T06:52:03.345Z,22.71
2022-08-10T06:53:03.661Z,22.82
2022-08-10T06:54:03.558Z,22.93
2022-08-10T06:55:05.057Z,23.07
2022-08-10T06:56:03.255Z,23.15
2022-08-10T06:57:17.657Z,23.23
2022-08-10T06:58:03.177Z,23.32
2022-08-10T06:59:03.200Z,23.43
2022-08-10T07:00:03.275Z,23.52
2022-08-10T07:01:02.737Z,23.64
2022-08-10T07:02:02.534Z,23.72
2022-08-10T07:03:02.630Z,23.85
2022-08-10T07:04:02.266Z,23.92
2022-08-10T07:05:02.657Z,24.00
2022-08-10T07:06:02.645Z,24.07
2022-08-10T07:07:02.907Z,24.13
2022-08-10T07:08:02.908Z,24.20
2022-08-10T07:09:02.977Z,24.24
2022-08-10T07:10:03.115Z,24.32
2022-08-10T07:11:02.994Z,24.39
2022-08-10T07:12:08.319Z,24.42
2022-08-10T07:13:02.659Z,24.50
2022-08-10T07:14:17.512Z,24.57
2022-08-10T07:15:03.170Z,24.67
2022-08-10T07:16:02.641Z,24.76
2022-08-10T07:17:03.226Z,24.83
2022-08-10T07:18:03.114Z,24.85
2022-08-10T07:19:03.278Z,24.92
2022-08-10T07:20:04.347Z,24.98
2022-08-10T07:21:03.519Z,25.02
2022-08-10T07:22:02.282Z,25.06
2022-08-10T07:23:56.234Z,25.13
2022-08-10T07:24:03.240Z,25.19
2022-08-10T07:25:02.682Z,25.27
2022-08-10T07:26:02.834Z,25.37
2022-08-10T07:27:03.012Z,25.47
2022-08-10T07:28:02.972Z,25.56
2022-08-10T07:29:02.613Z,25.65
2022-08-10T07:30:02.701Z,25.72
2022-08-10T07:31:02.987Z,25.80
2022-08-10T07:32:03.634Z,25.84
2022-08-10T07:33:03.307Z,25.93
2022-08-10T07:34:03.472Z,25.98
2022-08-10T07:35:03.307Z,26.04
2022-08-10T07:36:03.127Z,26.11
2022-08-10T07:37:02.937Z,26.21
2022-08-10T07:38:02.748Z,26.28
2022-08-10T07:39:02.802Z,26.39
2022-08-10T07:40:04.873Z,26.46
2022-08-10T07:41:02.355Z,26.58
2022-08-10T07:42:02.991Z,26.59
2022-08-10T07:43:02.468Z,26.65
2022-08-10T07:44:02.847Z,26.67
2022-08-10T07:45:02.976Z,26.72
2022-08-10T07:46:03.030Z,26.77
2022-08-10T07:47:02.846Z,26.81
2022-08-10T07:48:07.459Z,26.92
2022-08-10T07:49:03.188Z,26.99
2022-08-10T07:50:03.381Z,26.98
2022-08-10T07:51:03.398Z,27.02
2022-08-10T07:52:02.968Z,27.06
2022-08-10T07:53:02.867Z,27.11
2022-08-10T07:54:02.497Z,27.14
2022-08-10T07:55:02.726Z,27.17
2022-08-10T07:56:13.226Z,27.20
2022-08-10T07:57:03.599Z,27.26
2022-08-10T07:58:03.606Z,27.31
2022-08-10T07:59:03.466Z,27.35
2022-08-10T08:00:04.472Z,27.39
2022-08-10T08:01:03.525Z,27.41
2022-08-10T08:02:03.645Z,27.43
2022-08-10T08:03:03.557Z,27.46
2022-08-10T08:04:10.802Z,27.50
2022-08-10T08:05:03.694Z,27.54
2022-08-10T08:06:11.450Z,27.58
2022-08-10T08:07:02.592Z,27.66
2022-08-10T08:08:02.662Z,27.67
2022-08-10T08:09:02.798Z,27.66
2022-08-10T08:10:02.732Z,27.66
2022-08-10T08:11:02.729Z,27.69
2022-08-10T08:12:02.723Z,27.74
2022-08-10T08:13:02.893Z,27.79
2022-08-10T08:14:03.307Z,27.80
2022-08-10T08:16:17.054Z,27.79
2022-08-10T08:16:18.013Z,27.82
2022-08-10T08:17:03.031Z,27.84
2022-08-10T08:18:03.547Z,27.86
2022-08-10T08:19:27.975Z,27.94
2022-08-10T08:20:03.096Z,28.01
2022-08-10T08:21:03.296Z,28.09
2022-08-10T08:24:11.137Z,28.22
2022-08-10T08:24:14.653Z,28.16
2022-08-10T08:24:31.076Z,28.28
2022-08-10T08:25:02.613Z,28.35
2022-08-10T08:26:03.031Z,28.38
2022-08-10T08:27:02.827Z,28.43
2022-08-10T08:28:02.888Z,28.46
2022-08-10T08:29:05.020Z,28.47
2022-08-10T08:30:03.098Z,28.44
2022-08-10T08:31:03.235Z,28.47
2022-08-10T08:32:03.984Z,28.48
2022-08-10T08:33:03.953Z,28.54
2022-08-10T08:34:03.692Z,28.59
2022-08-10T08:35:03.437Z,28.68
2022-08-10T08:36:03.366Z,28.75
2022-08-10T08:37:03.440Z,28.75
2022-08-10T08:38:29.302Z,28.80
2022-08-10T08:39:03.421Z,28.82
2022-08-10T08:40:03.984Z,28.88
2022-08-10T08:41:03.999Z,28.90
2022-08-10T08:42:03.150Z,28.90
2022-08-10T08:43:03.194Z,28.96
2022-08-10T08:44:03.661Z,29.01
2022-08-10T08:45:03.428Z,29.06
2022-08-10T08:46:03.558Z,29.11
2022-08-10T08:47:03.403Z,29.16
2022-08-10T08:48:06.334Z,29.20
2022-08-10T08:49:03.903Z,29.28
2022-08-10T08:50:07.635Z,29.33
2022-08-10T08:51:03.785Z,29.35
2022-08-10T08:52:07.063Z,29.35
2022-08-10T08:53:02.976Z,29.26
2022-08-10T08:54:04.110Z,29.31
2022-08-10T08:55:03.368Z,29.37
2022-08-10T08:56:06.953Z,29.40
2022-08-10T08:57:03.238Z,29.47
2022-08-10T08:58:03.391Z,29.55
2022-08-10T08:59:03.371Z,29.60
2022-08-10T09:00:03.320Z,29.62
2022-08-10T09:01:03.550Z,29.68
2022-08-10T09:02:02.523Z,29.74
2022-08-10T09:03:02.620Z,29.82
2022-08-10T09:04:02.750Z,29.89
2022-08-10T09:05:02.902Z,29.94
2022-08-10T09:06:02.827Z,29.97
2022-08-10T09:07:03.125Z,29.97
2022-08-10T09:08:03.426Z,29.96
2022-08-10T09:09:03.478Z,30.00
2022-08-10T09:10:03.492Z,30.02
2022-08-10T09:11:03.314Z,30.08
2022-08-10T09:12:02.722Z,30.14
2022-08-10T09:13:02.714Z,30.16
2022-08-10T09:14:02.679Z,30.19
2022-08-10T09:15:02.563Z,30.21
2022-08-10T09:16:02.691Z,30.27
2022-08-10T09:17:03.359Z,30.37
2022-08-10T09:18:03.500Z,30.40
2022-08-10T09:19:03.580Z,30.46
2022-08-10T09:20:03.695Z,30.52
2022-08-10T09:21:03.145Z,30.56
2022-08-10T09:22:13.196Z,30.59
2022-08-10T09:23:02.866Z,30.67
2022-08-10T09:24:05.773Z,30.72
2022-08-10T09:25:03.346Z,30.78
2022-08-10T09:26:03.225Z,30.71
2022-08-10T09:27:03.309Z,30.68
2022-08-10T09:28:03.444Z,30.67
2022-08-10T09:29:13.273Z,30.75
2022-08-10T09:30:03.479Z,30.81
2022-08-10T09:31:21.360Z,30.76
2022-08-10T09:33:07.671Z,30.78
2022-08-10T09:36:20.092Z,30.90
2022-08-10T09:36:20.305Z,30.83
2022-08-10T09:36:22.103Z,30.93
2022-08-10T09:36:26.579Z,30.86
2022-08-10T09:37:02.858Z,30.98
2022-08-10T09:38:03.332Z,31.04
2022-08-10T09:39:02.975Z,31.05
2022-08-10T09:40:56.715Z,31.06
2022-08-10T09:41:06.331Z,31.09
2022-08-10T09:42:03.356Z,31.12
2022-08-10T09:43:25.599Z,31.20
2022-08-10T09:44:03.454Z,31.23
2022-08-10T09:45:03.608Z,31.20
2022-08-10T09:46:03.420Z,31.17
2022-08-10T09:47:03.449Z,31.18
2022-08-10T09:48:03.565Z,31.13
2022-08-10T09:49:03.570Z,31.11
2022-08-10T09:50:04.915Z,31.12
2022-08-10T09:52:03.498Z,31.18
2022-08-10T09:53:03.516Z,31.24
2022-08-10T09:54:03.700Z,31.27
2022-08-10T09:55:03.425Z,31.31
2022-08-10T09:56:17.633Z,31.38
2022-08-10T09:57:43.515Z,31.42
2022-08-10T09:58:03.908Z,31.36
2022-08-10T09:59:59.564Z,31.31
2022-08-10T10:00:03.525Z,31.33
2022-08-10T10:01:04.031Z,31.42
2022-08-10T10:02:04.471Z,31.48
2022-08-10T10:03:02.749Z,31.53
2022-08-10T10:04:02.638Z,31.57
2022-08-10T10:05:02.870Z,31.60
2022-08-10T10:06:02.997Z,31.68
2022-08-10T10:07:03.204Z,31.76
2022-08-10T10:08:03.360Z,31.76
2022-08-10T10:09:10.517Z,31.77
2022-08-10T10:10:02.992Z,31.80
2022-08-10T10:11:03.319Z,31.80
2022-08-10T10:12:05.258Z,31.80
2022-08-10T10:13:03.481Z,31.77
2022-08-10T10:14:06.424Z,31.77
2022-08-10T10:15:02.968Z,31.76
2022-08-10T10:16:03.115Z,31.73
2022-08-10T10:17:02.943Z,31.76
2022-08-10T10:18:03.042Z,31.82
2022-08-10T10:19:02.565Z,31.96
2022-08-10T10:20:02.714Z,32.00
2022-08-10T10:21:02.654Z,31.99
2022-08-10T10:22:03.178Z,32.00
2022-08-10T10:23:02.805Z,32.03
2022-08-10T10:24:21.127Z,32.06
2022-08-10T10:25:21.079Z,32.13
2022-08-10T10:26:08.461Z,32.17
2022-08-10T10:27:03.551Z,32.24
2022-08-10T10:28:03.211Z,32.25
2022-08-10T10:30:03.268Z,32.29
2022-08-10T10:31:03.439Z,32.29
2022-08-10T10:32:03.571Z,32.29
2022-08-10T10:33:03.749Z,32.29
2022-08-10T10:34:03.322Z,32.36
2022-08-10T10:35:03.150Z,32.40
2022-08-10T10:36:03.390Z,32.36
2022-08-10T10:37:04.102Z,32.35
2022-08-10T10:38:04.291Z,32.29
2022-08-10T10:39:04.097Z,32.27
2022-08-10T10:40:04.018Z,32.27
2022-08-10T10:41:04.069Z,32.32
2022-08-10T10:42:04.984Z,32.35
2022-08-10T10:43:03.896Z,32.43
2022-08-10T10:44:03.408Z,32.54
2022-08-10T10:45:03.778Z,32.58
2022-08-10T10:46:03.837Z,32.58
2022-08-10T10:47:03.578Z,32.57
2022-08-10T10:48:03.052Z,32.58
2022-08-10T10:49:03.346Z,32.64
2022-08-10T10:50:03.402Z,32.71
2022-08-10T10:51:07.157Z,32.71
2022-08-10T10:52:04.305Z,32.70
2022-08-10T10:53:04.555Z,32.70
2022-08-10T10:54:04.060Z,32.69
2022-08-10T10:55:03.780Z,32.74
2022-08-10T10:56:15.516Z,32.71
2022-08-10T10:57:03.628Z,32.74
2022-08-10T10:58:03.568Z,32.77
2022-08-10T10:59:53.371Z,32.69
2022-08-10T11:00:03.548Z,32.58
2022-08-10T11:01:03.089Z,32.57
2022-08-10T11:02:02.526Z,32.61
2022-08-10T11:03:02.682Z,32.62
2022-08-10T11:04:02.761Z,32.62
2022-08-10T11:05:02.755Z,32.71
2022-08-10T11:06:02.827Z,32.80
2022-08-10T11:07:03.010Z,32.85
2022-08-10T11:08:03.133Z,32.88
2022-08-10T11:09:03.257Z,32.92
2022-08-10T11:10:19.770Z,32.91
2022-08-10T11:11:03.319Z,32.86
2022-08-10T11:12:04.847Z,32.81
2022-08-10T11:14:23.244Z,32.76
2022-08-10T11:14:25.316Z,32.81
2022-08-10T11:15:03.643Z,32.91
2022-08-10T11:16:03.933Z,32.99
2022-08-10T11:17:03.958Z,33.11
2022-08-10T11:18:03.110Z,33.19
2022-08-10T11:19:03.199Z,33.23
2022-08-10T11:20:04.179Z,33.19
2022-08-10T11:21:03.155Z,33.15
2022-08-10T11:22:03.263Z,33.17
2022-08-10T11:23:03.903Z,33.27
2022-08-10T11:24:48.583Z,33.34
2022-08-10T11:25:04.149Z,33.29
2022-08-10T11:26:03.929Z,33.29
2022-08-10T11:27:03.971Z,33.29
2022-08-10T11:28:03.828Z,33.34
2022-08-10T11:29:03.710Z,33.48
2022-08-10T11:30:03.182Z,33.61
2022-08-10T11:31:03.341Z,33.76
2022-08-10T11:32:03.495Z,33.82
2022-08-10T11:33:03.179Z,33.80
2022-08-10T11:34:47.453Z,33.76
2022-08-10T11:35:11.626Z,33.74
2022-08-10T11:36:03.195Z,33.78
2022-08-10T11:37:03.414Z,33.79
2022-08-10T11:38:29.620Z,33.83
2022-08-10T11:39:18.729Z,33.92
2022-08-10T11:40:03.762Z,33.94
2022-08-10T11:41:12.836Z,33.95
2022-08-10T11:42:11.509Z,34.01
2022-08-10T11:43:03.391Z,34.07
2022-08-10T11:44:03.530Z,34.08
2022-08-10T11:45:03.614Z,34.02
2022-08-10T11:46:07.860Z,33.97
2022-08-10T11:47:03.886Z,34.00
2022-08-10T11:48:03.986Z,34.01
2022-08-10T11:49:04.203Z,33.97
2022-08-10T11:50:04.157Z,33.90
2022-08-10T11:51:04.115Z,33.92
2022-08-10T11:52:03.563Z,34.01
2022-08-10T11:53:03.523Z,34.01
2022-08-10T11:54:03.284Z,33.98
2022-08-10T11:55:03.388Z,34.05
2022-08-10T11:56:04.604Z,34.17
2022-08-10T11:57:03.594Z,34.31
2022-08-10T11:58:04.184Z,34.41
2022-08-10T11:59:16.431Z,34.51
2022-08-10T12:00:04.141Z,34.60
2022-08-10T12:01:03.767Z,34.66
2022-08-10T12:02:04.255Z,34.73
2022-08-10T12:03:02.403Z,34.80
2022-08-10T12:04:02.511Z,34.83
2022-08-10T12:05:02.775Z,34.84
2022-08-10T12:06:02.998Z,34.83
2022-08-10T12:07:02.533Z,34.86
2022-08-10T12:10:02.350Z,34.89
2022-08-10T12:10:09.139Z,34.91
2022-08-10T12:10:13.105Z,34.99
2022-08-10T12:11:02.944Z,34.89
2022-08-10T12:12:03.128Z,34.81
2022-08-10T12:13:02.486Z,34.79
2022-08-10T12:14:20.874Z,34.72
2022-08-10T12:15:02.752Z,34.73
2022-08-10T12:16:05.536Z,34.80
2022-08-10T12:17:02.637Z,34.92
2022-08-10T12:18:02.814Z,35.03
2022-08-10T12:19:03.384Z,35.07
2022-08-10T12:20:03.898Z,35.14
2022-08-10T12:21:03.352Z,35.07
2022-08-10T12:22:06.045Z,35.07
2022-08-10T12:23:02.909Z,35.14
2022-08-10T12:24:03.600Z,35.18
2022-08-10T12:25:03.479Z,35.17
2022-08-10T12:26:03.158Z,35.10
2022-08-10T12:27:03.278Z,35.07
2022-08-10T12:28:02.473Z,35.13
2022-08-10T12:29:02.671Z,35.20
2022-08-10T12:30:02.825Z,35.23
2022-08-10T12:31:02.967Z,35.29
2022-08-10T12:32:03.062Z,35.29
2022-08-10T12:33:03.272Z,35.17
2022-08-10T12:34:03.408Z,35.14
2022-08-10T12:35:03.609Z,35.08
2022-08-10T12:36:17.843Z,35.08
2022-08-10T12:37:03.381Z,35.14
2022-08-10T12:38:02.573Z,35.23
2022-08-10T12:39:02.650Z,35.28
2022-08-10T12:40:31.773Z,35.14
2022-08-10T12:41:02.665Z,35.10
2022-08-10T12:42:02.686Z,35.03
2022-08-10T12:43:12.934Z,34.88
2022-08-10T12:44:07.667Z,34.86
2022-08-10T12:45:02.870Z,34.89
2022-08-10T12:46:06.568Z,34.80
2022-08-10T12:47:10.531Z,34.72
2022-08-10T12:48:03.264Z,34.69
2022-08-10T12:49:03.437Z,34.80
2022-08-10T12:50:29.358Z,34.98
2022-08-10T12:51:03.662Z,35.11
2022-08-10T12:52:03.799Z,35.18
2022-08-10T12:53:06.412Z,35.32
2022-08-10T12:54:02.942Z,35.44